sensor_id;sensor_type;location;lat;lon;timestamp;temperature;humidity
23957;DHT22;12165;45.458;11.062;2022-09-01T00:00:00;21.10;99.90
23957;DHT22;12165;45.458;11.062;2022-09-01T00:02:32;20.90;99.90
23957;DHT22;12165;45.458;11.062;2022-09-01T00:04:59;20.90;99.90
23957;DHT22;12165;45.458;11.062;2022-09-01T00:07:28;21.00;99.90
23957;DHT22;12165;45.458;11.062;2022-09-01T00:09:59;20.90;99.90
23957;DHT22;12165;45.458;11.062;2022-09-01T00:12:27;20.90;99.90
23957;DHT22;12165;45.458;11.062;2022-09-01T00:14:54;21.10;99.90
23957;DHT22;12165;45.458;11.062;2022-09-01T00:17:21;21.00;99.90
23957;DHT22;12165;45.458;11.062;2022-09-01T00:19:48;20.90;99.90
23957;DHT22;12165;45.458;11.062;2022-09-01T00:22:15;21.10;99.90
23957;DHT22;12165;45.458;11.062;2022-09-01T00:24:42;21.20;99.90
23957;DHT22;12165;45.458;11.062;2022-09-01T00:27:09;21.20;99.90
23957;DHT22;12165;45.458;11.062;2022-09-01T00:29:36;21.10;99.90
23957;DHT22;12165;45.458;11.062;2022-09-01T00:32:09;21.00;99.90
23957;DHT22;12165;45.458;11.062;2022-09-01T00:34:37;20.90;99.90
23957;DHT22;12165;45.458;11.062;2022-09-01T00:37:04;20.90;99.90
23957;DHT22;12165;45.458;11.062;2022-09-01T00:39:31;20.90;99.90
23957;DHT22;12165;45.458;11.062;2022-09-01T00:41:58;21.00;99.90
23957;DHT22;12165;45.458;11.062;2022-09-01T00:44:25;20.90;99.90
23957;DHT22;12165;45.458;11.062;2022-09-01T00:46:58;20.90;99.90
23957;DHT22;12165;45.458;11.062;2022-09-01T00:49:35;20.80;99.90
23957;DHT22;12165;45.458;11.062;2022-09-01T00:52:10;20.70;99.90
23957;DHT22;12165;45.458;11.062;2022-09-01T00:54:42;20.90;99.90
23957;DHT22;12165;45.458;11.062;2022-09-01T00:57:11;20.90;99.90
23957;DHT22;12165;45.458;11.062;2022-09-01T00:59:53;20.90;99.90
23957;DHT22;12165;45.458;11.062;2022-09-01T01:02:20;21.00;99.90
23957;DHT22;12165;45.458;11.062;2022-09-01T01:04:48;20.90;99.90
23957;DHT22;12165;45.458;11.062;2022-09-01T01:07:19;20.80;99.90
23957;DHT22;12165;45.458;11.062;2022-09-01T01:09:49;21.10;99.90
23957;DHT22;12165;45.458;11.062;2022-09-01T01:12:17;21.00;99.90
23957;DHT22;12165;45.458;11.062;2022-09-01T01:14:48;21.00;99.90
23957;DHT22;12165;45.458;11.062;2022-09-01T01:17:21;21.10;99.90
23957;DHT22;12165;45.458;11.062;2022-09-01T01:19:53;21.20;99.90
23957;DHT22;12165;45.458;11.062;2022-09-01T01:25:39;21.00;99.90
23957;DHT22;12165;45.458;11.062;2022-09-01T01:32:27;20.90;99.90
23957;DHT22;12165;45.458;11.062;2022-09-01T01:34:56;21.00;99.90
23957;DHT22;12165;45.458;11.062;2022-09-01T01:37:23;21.10;99.90
23957;DHT22;12165;45.458;11.062;2022-09-01T01:39:51;21.30;99.90
23957;DHT22;12165;45.458;11.062;2022-09-01T01:42:18;21.20;99.90
23957;DHT22;12165;45.458;11.062;2022-09-01T01:44:46;21.10;99.90
23957;DHT22;12165;45.458;11.062;2022-09-01T01:47:13;21.10;99.90
23957;DHT22;12165;45.458;11.062;2022-09-01T01:49:43;21.00;99.90
23957;DHT22;12165;45.458;11.062;2022-09-01T01:52:11;21.10;99.90
23957;DHT22;12165;45.458;11.062;2022-09-01T01:54:44;21.10;99.90
23957;DHT22;12165;45.458;11.062;2022-09-01T01:57:12;21.00;99.90
23957;DHT22;12165;45.458;11.062;2022-09-01T01:59:44;21.20;99.90
23957;DHT22;12165;45.458;11.062;2022-09-01T02:02:11;21.20;99.90
23957;DHT22;12165;45.458;11.062;2022-09-01T02:04:39;21.20;99.90
23957;DHT22;12165;45.458;11.062;2022-09-01T02:07:10;21.20;99.90
23957;DHT22;12165;45.458;11.062;2022-09-01T02:09:38;21.10;99.90
23957;DHT22;12165;45.458;11.062;2022-09-01T02:12:07;21.00;99.90
23957;DHT22;12165;45.458;11.062;2022-09-01T02:14:34;21.20;99.90
23957;DHT22;12165;45.458;11.062;2022-09-01T02:17:01;21.00;99.90
23957;DHT22;12165;45.458;11.062;2022-09-01T02:19:29;21.00;99.90
23957;DHT22;12165;45.458;11.062;2022-09-01T02:21:56;21.00;99.90
23957;DHT22;12165;45.458;11.062;2022-09-01T02:24:25;21.20;99.90
23957;DHT22;12165;45.458;11.062;2022-09-01T02:26:56;21.20;99.90
23957;DHT22;12165;45.458;11.062;2022-09-01T02:29:25;21.30;99.90
23957;DHT22;12165;45.458;11.062;2022-09-01T02:31:55;21.30;99.90
23957;DHT22;12165;45.458;11.062;2022-09-01T02:34:25;21.20;99.90
23957;DHT22;12165;45.458;11.062;2022-09-01T02:36:56;21.30;99.90
23957;DHT22;12165;45.458;11.062;2022-09-01T02:39:28;21.20;99.90
23957;DHT22;12165;45.458;11.062;2022-09-01T02:41:56;21.20;99.90
23957;DHT22;12165;45.458;11.062;2022-09-01T02:44:26;21.20;99.90
23957;DHT22;12165;45.458;11.062;2022-09-01T02:46:53;21.20;99.90
23957;DHT22;12165;45.458;11.062;2022-09-01T02:49:23;21.20;99.90
23957;DHT22;12165;45.458;11.062;2022-09-01T02:51:55;21.20;99.90
23957;DHT22;12165;45.458;11.062;2022-09-01T02:54:25;21.00;99.90
23957;DHT22;12165;45.458;11.062;2022-09-01T02:56:53;21.20;99.90
23957;DHT22;12165;45.458;11.062;2022-09-01T02:59:24;21.30;99.90
23957;DHT22;12165;45.458;11.062;2022-09-01T03:01:55;21.10;99.90
23957;DHT22;12165;45.458;11.062;2022-09-01T03:04:23;21.00;99.90
23957;DHT22;12165;45.458;11.062;2022-09-01T03:06:50;21.40;99.90
23957;DHT22;12165;45.458;11.062;2022-09-01T03:09:21;21.20;99.90
23957;DHT22;12165;45.458;11.062;2022-09-01T03:11:50;21.00;99.90
23957;DHT22;12165;45.458;11.062;2022-09-01T03:14:20;21.00;99.90
23957;DHT22;12165;45.458;11.062;2022-09-01T03:16:47;21.20;99.90
23957;DHT22;12165;45.458;11.062;2022-09-01T03:19:15;21.20;99.90
23957;DHT22;12165;45.458;11.062;2022-09-01T03:21:44;21.20;99.90
23957;DHT22;12165;45.458;11.062;2022-09-01T03:24:17;21.40;99.90
23957;DHT22;12165;45.458;11.062;2022-09-01T03:26:45;21.20;99.90
23957;DHT22;12165;45.458;11.062;2022-09-01T03:29:16;21.20;99.90
23957;DHT22;12165;45.458;11.062;2022-09-01T03:31:43;21.20;99.90
23957;DHT22;12165;45.458;11.062;2022-09-01T03:34:11;21.20;99.90
23957;DHT22;12165;45.458;11.062;2022-09-01T03:36:44;21.20;99.90
23957;DHT22;12165;45.458;11.062;2022-09-01T03:39:25;21.20;99.90
23957;DHT22;12165;45.458;11.062;2022-09-01T03:41:52;21.20;99.90
23957;DHT22;12165;45.458;11.062;2022-09-01T03:44:19;21.20;99.90
23957;DHT22;12165;45.458;11.062;2022-09-01T03:46:46;21.30;99.90
23957;DHT22;12165;45.458;11.062;2022-09-01T03:49:14;21.40;99.90
23957;DHT22;12165;45.458;11.062;2022-09-01T03:51:43;21.30;99.90
23957;DHT22;12165;45.458;11.062;2022-09-01T03:54:11;21.10;99.90
23957;DHT22;12165;45.458;11.062;2022-09-01T03:56:38;21.10;99.90
23957;DHT22;12165;45.458;11.062;2022-09-01T03:59:14;21.00;99.90
23957;DHT22;12165;45.458;11.062;2022-09-01T04:01:46;21.00;99.90
23957;DHT22;12165;45.458;11.062;2022-09-01T04:04:15;21.10;99.90
23957;DHT22;12165;45.458;11.062;2022-09-01T04:06:44;20.90;99.90
23957;DHT22;12165;45.458;11.062;2022-09-01T04:09:12;21.00;99.90
23957;DHT22;12165;45.458;11.062;2022-09-01T04:11:42;20.80;99.90
23957;DHT22;12165;45.458;11.062;2022-09-01T04:14:14;20.80;99.90
23957;DHT22;12165;45.458;11.062;2022-09-01T04:16:42;20.90;99.90
23957;DHT22;12165;45.458;11.062;2022-09-01T04:19:31;20.80;99.90
23957;DHT22;12165;45.458;11.062;2022-09-01T04:22:00;21.00;99.90
23957;DHT22;12165;45.458;11.062;2022-09-01T04:24:39;21.00;99.90
23957;DHT22;12165;45.458;11.062;2022-09-01T04:27:12;20.90;99.90
23957;DHT22;12165;45.458;11.062;2022-09-01T04:29:40;21.10;99.90
23957;DHT22;12165;45.458;11.062;2022-09-01T04:32:09;21.10;99.90
23957;DHT22;12165;45.458;11.062;2022-09-01T04:34:41;21.20;99.90
23957;DHT22;12165;45.458;11.062;2022-09-01T04:37:13;21.10;99.90
23957;DHT22;12165;45.458;11.062;2022-09-01T04:39:51;21.00;99.90
23957;DHT22;12165;45.458;11.062;2022-09-01T04:42:27;21.00;99.90
23957;DHT22;12165;45.458;11.062;2022-09-01T04:44:57;21.00;99.90
23957;DHT22;12165;45.458;11.062;2022-09-01T04:47:29;21.00;99.90
23957;DHT22;12165;45.458;11.062;2022-09-01T04:50:05;21.10;99.90
23957;DHT22;12165;45.458;11.062;2022-09-01T04:52:44;21.00;99.90
23957;DHT22;12165;45.458;11.062;2022-09-01T04:55:23;20.90;99.90
23957;DHT22;12165;45.458;11.062;2022-09-01T04:57:53;21.00;99.90
23957;DHT22;12165;45.458;11.062;2022-09-01T05:00:21;21.00;99.90
23957;DHT22;12165;45.458;11.062;2022-09-01T05:02:53;21.10;99.90
23957;DHT22;12165;45.458;11.062;2022-09-01T05:05:23;21.60;99.90
23957;DHT22;12165;45.458;11.062;2022-09-01T05:07:52;22.20;99.90
23957;DHT22;12165;45.458;11.062;2022-09-01T05:10:22;21.70;99.90
23957;DHT22;12165;45.458;11.062;2022-09-01T05:13:13;21.60;99.90
23957;DHT22;12165;45.458;11.062;2022-09-01T05:15:45;22.00;99.90
23957;DHT22;12165;45.458;11.062;2022-09-01T05:18:15;21.70;99.90
23957;DHT22;12165;45.458;11.062;2022-09-01T05:20:50;21.70;99.90
23957;DHT22;12165;45.458;11.062;2022-09-01T05:23:18;21.60;99.90
23957;DHT22;12165;45.458;11.062;2022-09-01T05:25:51;21.60;99.90
23957;DHT22;12165;45.458;11.062;2022-09-01T05:28:21;21.80;99.90
23957;DHT22;12165;45.458;11.062;2022-09-01T05:30:51;21.90;99.90
23957;DHT22;12165;45.458;11.062;2022-09-01T05:33:21;22.00;99.90
23957;DHT22;12165;45.458;11.062;2022-09-01T05:35:54;22.00;99.90
23957;DHT22;12165;45.458;11.062;2022-09-01T05:38:22;21.70;99.90
23957;DHT22;12165;45.458;11.062;2022-09-01T05:41:01;21.60;99.90
23957;DHT22;12165;45.458;11.062;2022-09-01T05:43:30;21.60;99.90
23957;DHT22;12165;45.458;11.062;2022-09-01T05:45:59;21.50;99.90
23957;DHT22;12165;45.458;11.062;2022-09-01T05:52:53;21.50;99.90
23957;DHT22;12165;45.458;11.062;2022-09-01T05:55:21;21.60;99.90
23957;DHT22;12165;45.458;11.062;2022-09-01T05:57:48;21.60;99.90
23957;DHT22;12165;45.458;11.062;2022-09-01T06:00:16;21.60;99.90
23957;DHT22;12165;45.458;11.062;2022-09-01T06:02:46;21.60;99.90
23957;DHT22;12165;45.458;11.062;2022-09-01T06:05:19;21.80;99.90
23957;DHT22;12165;45.458;11.062;2022-09-01T06:07:48;21.80;99.90
23957;DHT22;12165;45.458;11.062;2022-09-01T06:14:45;21.50;99.90
23957;DHT22;12165;45.458;11.062;2022-09-01T06:17:18;21.60;99.90
23957;DHT22;12165;45.458;11.062;2022-09-01T06:19:49;21.50;99.90
23957;DHT22;12165;45.458;11.062;2022-09-01T06:22:19;21.70;99.90
23957;DHT22;12165;45.458;11.062;2022-09-01T06:24:46;21.60;99.90
23957;DHT22;12165;45.458;11.062;2022-09-01T06:27:21;21.60;99.90
23957;DHT22;12165;45.458;11.062;2022-09-01T06:29:48;21.60;99.90
23957;DHT22;12165;45.458;11.062;2022-09-01T06:32:19;21.70;99.90
23957;DHT22;12165;45.458;11.062;2022-09-01T06:34:46;21.60;99.90
23957;DHT22;12165;45.458;11.062;2022-09-01T06:37:17;21.60;99.90
23957;DHT22;12165;45.458;11.062;2022-09-01T06:39:51;21.70;99.90
23957;DHT22;12165;45.458;11.062;2022-09-01T06:42:19;21.70;99.90
23957;DHT22;12165;45.458;11.062;2022-09-01T06:44:57;21.70;99.90
23957;DHT22;12165;45.458;11.062;2022-09-01T06:59:20;22.10;99.90
23957;DHT22;12165;45.458;11.062;2022-09-01T07:01:48;22.20;99.90
23957;DHT22;12165;45.458;11.062;2022-09-01T07:04:23;22.30;99.90
23957;DHT22;12165;45.458;11.062;2022-09-01T07:06:56;22.50;99.90
23957;DHT22;12165;45.458;11.062;2022-09-01T07:09:27;22.90;99.90
23957;DHT22;12165;45.458;11.062;2022-09-01T07:12:20;23.00;99.90
23957;DHT22;12165;45.458;11.062;2022-09-01T07:14:52;23.20;99.90
23957;DHT22;12165;45.458;11.062;2022-09-01T07:17:42;23.20;99.90
23957;DHT22;12165;45.458;11.062;2022-09-01T07:20:10;23.40;99.90
23957;DHT22;12165;45.458;11.062;2022-09-01T07:22:55;23.50;99.90
23957;DHT22;12165;45.458;11.062;2022-09-01T07:25:34;23.60;99.90
23957;DHT22;12165;45.458;11.062;2022-09-01T07:28:31;23.70;99.90
23957;DHT22;12165;45.458;11.062;2022-09-01T07:31:06;23.60;99.90
23957;DHT22;12165;45.458;11.062;2022-09-01T07:33:58;23.60;99.90
23957;DHT22;12165;45.458;11.062;2022-09-01T07:36:47;23.60;99.90
23957;DHT22;12165;45.458;11.062;2022-09-01T07:39:37;23.70;99.90
23957;DHT22;12165;45.458;11.062;2022-09-01T07:42:47;23.50;99.90
23957;DHT22;12165;45.458;11.062;2022-09-01T07:45:55;23.60;99.90
23957;DHT22;12165;45.458;11.062;2022-09-01T07:48:45;23.30;99.90
23957;DHT22;12165;45.458;11.062;2022-09-01T07:51:34;23.40;99.90
23957;DHT22;12165;45.458;11.062;2022-09-01T07:54:04;23.50;99.90
23957;DHT22;12165;45.458;11.062;2022-09-01T07:56:32;23.70;99.90
23957;DHT22;12165;45.458;11.062;2022-09-01T07:59:07;23.70;99.90
23957;DHT22;12165;45.458;11.062;2022-09-01T08:01:49;23.60;99.90
23957;DHT22;12165;45.458;11.062;2022-09-01T08:04:17;23.80;99.90
23957;DHT22;12165;45.458;11.062;2022-09-01T08:06:49;23.90;99.90
23957;DHT22;12165;45.458;11.062;2022-09-01T08:09:16;23.60;99.90
23957;DHT22;12165;45.458;11.062;2022-09-01T08:12:06;23.70;99.90
23957;DHT22;12165;45.458;11.062;2022-09-01T08:14:39;23.90;99.90
23957;DHT22;12165;45.458;11.062;2022-09-01T08:17:06;24.20;99.90
23957;DHT22;12165;45.458;11.062;2022-09-01T08:19:56;24.10;99.90
23957;DHT22;12165;45.458;11.062;2022-09-01T08:22:41;24.50;99.90
23957;DHT22;12165;45.458;11.062;2022-09-01T08:25:17;24.70;99.90
23957;DHT22;12165;45.458;11.062;2022-09-01T08:27:51;24.40;99.90
23957;DHT22;12165;45.458;11.062;2022-09-01T08:30:26;24.50;99.90
23957;DHT22;12165;45.458;11.062;2022-09-01T08:32:54;24.70;99.90
23957;DHT22;12165;45.458;11.062;2022-09-01T08:35:22;24.70;99.90
23957;DHT22;12165;45.458;11.062;2022-09-01T08:37:50;24.40;99.90
23957;DHT22;12165;45.458;11.062;2022-09-01T08:40:18;24.60;99.90
23957;DHT22;12165;45.458;11.062;2022-09-01T08:45:49;25.40;99.90
23957;DHT22;12165;45.458;11.062;2022-09-01T08:48:21;25.30;99.90
23957;DHT22;12165;45.458;11.062;2022-09-01T08:57:05;25.70;99.90
23957;DHT22;12165;45.458;11.062;2022-09-01T08:59:52;25.60;99.90
23957;DHT22;12165;45.458;11.062;2022-09-01T09:05:22;25.70;99.90
23957;DHT22;12165;45.458;11.062;2022-09-01T09:16:55;26.00;99.90
23957;DHT22;12165;45.458;11.062;2022-09-01T09:19:36;26.10;99.90
23957;DHT22;12165;45.458;11.062;2022-09-01T09:22:14;26.20;99.90
23957;DHT22;12165;45.458;11.062;2022-09-01T09:27:41;26.20;99.90
23957;DHT22;12165;45.458;11.062;2022-09-01T09:30:11;26.60;99.90
23957;DHT22;12165;45.458;11.062;2022-09-01T09:32:52;26.60;99.90
23957;DHT22;12165;45.458;11.062;2022-09-01T09:35:43;26.50;99.90
23957;DHT22;12165;45.458;11.062;2022-09-01T09:41:06;26.80;99.90
23957;DHT22;12165;45.458;11.062;2022-09-01T09:44:25;26.90;99.90
23957;DHT22;12165;45.458;11.062;2022-09-01T09:46:50;26.90;99.90
23957;DHT22;12165;45.458;11.062;2022-09-01T09:49:23;27.10;99.90
23957;DHT22;12165;45.458;11.062;2022-09-01T09:54:37;27.10;99.90
23957;DHT22;12165;45.458;11.062;2022-09-01T09:59:48;27.30;99.90
23957;DHT22;12165;45.458;11.062;2022-09-01T10:02:33;27.00;99.90
23957;DHT22;12165;45.458;11.062;2022-09-01T10:05:01;27.20;99.90
23957;DHT22;12165;45.458;11.062;2022-09-01T10:07:48;26.90;99.90
23957;DHT22;12165;45.458;11.062;2022-09-01T10:10:42;27.20;99.90
23957;DHT22;12165;45.458;11.062;2022-09-01T10:13:16;27.50;99.90
23957;DHT22;12165;45.458;11.062;2022-09-01T10:15:50;27.60;99.90
23957;DHT22;12165;45.458;11.062;2022-09-01T10:18:21;27.50;99.90
23957;DHT22;12165;45.458;11.062;2022-09-01T10:21:07;27.50;99.90
23957;DHT22;12165;45.458;11.062;2022-09-01T10:23:35;27.40;99.90
23957;DHT22;12165;45.458;11.062;2022-09-01T10:26:18;27.20;99.90
23957;DHT22;12165;45.458;11.062;2022-09-01T10:28:56;26.90;99.90
23957;DHT22;12165;45.458;11.062;2022-09-01T10:31:26;27.30;99.90
23957;DHT22;12165;45.458;11.062;2022-09-01T10:34:00;27.50;99.90
23957;DHT22;12165;45.458;11.062;2022-09-01T10:36:28;27.70;99.90
23957;DHT22;12165;45.458;11.062;2022-09-01T10:38:56;28.10;99.90
23957;DHT22;12165;45.458;11.062;2022-09-01T10:41:58;28.10;99.90
23957;DHT22;12165;45.458;11.062;2022-09-01T10:44:37;28.30;99.90
23957;DHT22;12165;45.458;11.062;2022-09-01T10:49:58;28.60;99.90
23957;DHT22;12165;45.458;11.062;2022-09-01T10:55:20;28.80;99.90
23957;DHT22;12165;45.458;11.062;2022-09-01T10:58:18;29.00;99.90
23957;DHT22;12165;45.458;11.062;2022-09-01T11:01:07;29.00;99.90
23957;DHT22;12165;45.458;11.062;2022-09-01T11:03:55;28.90;99.90
23957;DHT22;12165;45.458;11.062;2022-09-01T11:09:04;29.30;99.90
23957;DHT22;12165;45.458;11.062;2022-09-01T11:11:38;29.60;99.90
23957;DHT22;12165;45.458;11.062;2022-09-01T11:14:19;29.60;99.90
23957;DHT22;12165;45.458;11.062;2022-09-01T11:17:24;29.80;99.90
23957;DHT22;12165;45.458;11.062;2022-09-01T11:19:57;29.90;99.90
23957;DHT22;12165;45.458;11.062;2022-09-01T11:22:57;30.40;99.90
23957;DHT22;12165;45.458;11.062;2022-09-01T11:25:33;30.60;99.90
23957;DHT22;12165;45.458;11.062;2022-09-01T11:30:46;30.60;98.30
23957;DHT22;12165;45.458;11.062;2022-09-01T11:38:53;30.80;98.50
23957;DHT22;12165;45.458;11.062;2022-09-01T11:41:22;30.70;98.20
23957;DHT22;12165;45.458;11.062;2022-09-01T11:43:53;30.30;98.20
23957;DHT22;12165;45.458;11.062;2022-09-01T11:46:25;30.50;98.20
23957;DHT22;12165;45.458;11.062;2022-09-01T11:48:53;30.80;98.30
23957;DHT22;12165;45.458;11.062;2022-09-01T11:51:21;31.10;98.10
23957;DHT22;12165;45.458;11.062;2022-09-01T11:53:49;31.20;97.60
23957;DHT22;12165;45.458;11.062;2022-09-01T11:56:23;30.60;97.00
23957;DHT22;12165;45.458;11.062;2022-09-01T11:58:51;30.80;97.50
23957;DHT22;12165;45.458;11.062;2022-09-01T12:01:31;30.20;98.30
23957;DHT22;12165;45.458;11.062;2022-09-01T12:04:17;30.60;97.90
23957;DHT22;12165;45.458;11.062;2022-09-01T12:07:03;31.00;97.10
23957;DHT22;12165;45.458;11.062;2022-09-01T12:09:42;31.10;96.50
23957;DHT22;12165;45.458;11.062;2022-09-01T12:14:58;29.70;97.40
23957;DHT22;12165;45.458;11.062;2022-09-01T12:17:33;29.50;96.60
23957;DHT22;12165;45.458;11.062;2022-09-01T12:20:27;29.80;97.00
23957;DHT22;12165;45.458;11.062;2022-09-01T12:22:57;29.40;96.50
23957;DHT22;12165;45.458;11.062;2022-09-01T12:25:26;28.50;98.10
23957;DHT22;12165;45.458;11.062;2022-09-01T12:27:53;28.30;97.80
23957;DHT22;12165;45.458;11.062;2022-09-01T12:30:22;28.30;98.10
23957;DHT22;12165;45.458;11.062;2022-09-01T12:32:49;28.10;98.80
23957;DHT22;12165;45.458;11.062;2022-09-01T12:35:25;28.40;98.30
23957;DHT22;12165;45.458;11.062;2022-09-01T12:40:54;28.90;97.60
23957;DHT22;12165;45.458;11.062;2022-09-01T12:43:34;28.40;98.20
23957;DHT22;12165;45.458;11.062;2022-09-01T12:46:03;28.10;98.50
23957;DHT22;12165;45.458;11.062;2022-09-01T12:48:39;27.80;98.80
23957;DHT22;12165;45.458;11.062;2022-09-01T12:51:22;27.60;98.60
23957;DHT22;12165;45.458;11.062;2022-09-01T12:53:59;27.80;98.30
23957;DHT22;12165;45.458;11.062;2022-09-01T12:56:35;27.60;98.90
23957;DHT22;12165;45.458;11.062;2022-09-01T12:59:10;27.50;98.90
23957;DHT22;12165;45.458;11.062;2022-09-01T13:01:43;27.40;99.20
23957;DHT22;12165;45.458;11.062;2022-09-01T13:04:24;27.40;99.50
23957;DHT22;12165;45.458;11.062;2022-09-01T13:07:02;27.40;99.90
23957;DHT22;12165;45.458;11.062;2022-09-01T13:09:29;27.30;99.10
23957;DHT22;12165;45.458;11.062;2022-09-01T13:12:15;27.30;99.20
23957;DHT22;12165;45.458;11.062;2022-09-01T13:14:43;28.20;99.00
23957;DHT22;12165;45.458;11.062;2022-09-01T13:17:10;28.80;97.90
23957;DHT22;12165;45.458;11.062;2022-09-01T13:19:40;29.20;97.60
23957;DHT22;12165;45.458;11.062;2022-09-01T13:22:07;29.90;97.50
23957;DHT22;12165;45.458;11.062;2022-09-01T13:24:34;29.50;97.20
23957;DHT22;12165;45.458;11.062;2022-09-01T13:27:01;28.80;97.90
23957;DHT22;12165;45.458;11.062;2022-09-01T13:29:49;28.80;97.80
23957;DHT22;12165;45.458;11.062;2022-09-01T13:32:17;28.60;98.30
23957;DHT22;12165;45.458;11.062;2022-09-01T13:34:49;28.50;98.10
23957;DHT22;12165;45.458;11.062;2022-09-01T13:37:19;28.70;98.30
23957;DHT22;12165;45.458;11.062;2022-09-01T13:39:46;28.70;97.60
23957;DHT22;12165;45.458;11.062;2022-09-01T13:42:14;28.90;97.60
23957;DHT22;12165;45.458;11.062;2022-09-01T13:44:42;29.00;97.10
23957;DHT22;12165;45.458;11.062;2022-09-01T13:47:10;29.40;97.50
23957;DHT22;12165;45.458;11.062;2022-09-01T13:49:58;29.70;97.40
23957;DHT22;12165;45.458;11.062;2022-09-01T13:52:48;29.50;98.00
23957;DHT22;12165;45.458;11.062;2022-09-01T13:55:24;29.10;98.20
23957;DHT22;12165;45.458;11.062;2022-09-01T13:57:52;28.80;98.60
23957;DHT22;12165;45.458;11.062;2022-09-01T14:00:24;28.60;98.60
23957;DHT22;12165;45.458;11.062;2022-09-01T14:02:53;28.40;98.40
23957;DHT22;12165;45.458;11.062;2022-09-01T14:05:25;28.20;98.60
23957;DHT22;12165;45.458;11.062;2022-09-01T14:07:53;28.00;98.90
23957;DHT22;12165;45.458;11.062;2022-09-01T14:10:22;28.00;99.20
23957;DHT22;12165;45.458;11.062;2022-09-01T14:12:50;27.90;99.50
23957;DHT22;12165;45.458;11.062;2022-09-01T14:15:18;27.80;99.20
23957;DHT22;12165;45.458;11.062;2022-09-01T14:17:54;27.90;98.90
23957;DHT22;12165;45.458;11.062;2022-09-01T14:20:24;27.70;99.20
23957;DHT22;12165;45.458;11.062;2022-09-01T14:22:52;27.70;99.20
23957;DHT22;12165;45.458;11.062;2022-09-01T14:25:20;27.70;99.50
23957;DHT22;12165;45.458;11.062;2022-09-01T14:27:47;27.60;99.10
23957;DHT22;12165;45.458;11.062;2022-09-01T14:30:26;27.70;99.50
23957;DHT22;12165;45.458;11.062;2022-09-01T14:33:00;27.70;99.30
23957;DHT22;12165;45.458;11.062;2022-09-01T14:35:29;27.60;98.70
23957;DHT22;12165;45.458;11.062;2022-09-01T14:37:59;27.70;98.40
23957;DHT22;12165;45.458;11.062;2022-09-01T14:40:27;27.90;98.60
23957;DHT22;12165;45.458;11.062;2022-09-01T14:42:55;28.00;98.80
23957;DHT22;12165;45.458;11.062;2022-09-01T14:45:25;27.90;98.10
23957;DHT22;12165;45.458;11.062;2022-09-01T14:47:56;27.70;98.00
23957;DHT22;12165;45.458;11.062;2022-09-01T14:50:25;27.60;98.20
23957;DHT22;12165;45.458;11.062;2022-09-01T14:52:54;27.60;98.50
23957;DHT22;12165;45.458;11.062;2022-09-01T14:55:23;27.70;98.60
23957;DHT22;12165;45.458;11.062;2022-09-01T14:57:51;27.70;98.90
23957;DHT22;12165;45.458;11.062;2022-09-01T15:00:18;27.70;99.00
23957;DHT22;12165;45.458;11.062;2022-09-01T15:02:46;27.70;99.70
23957;DHT22;12165;45.458;11.062;2022-09-01T15:05:14;27.80;99.60
23957;DHT22;12165;45.458;11.062;2022-09-01T15:07:41;27.60;99.50
23957;DHT22;12165;45.458;11.062;2022-09-01T15:10:11;27.50;98.70
23957;DHT22;12165;45.458;11.062;2022-09-01T15:12:50;27.70;99.40
23957;DHT22;12165;45.458;11.062;2022-09-01T15:15:17;27.50;99.60
23957;DHT22;12165;45.458;11.062;2022-09-01T15:17:43;27.50;99.30
23957;DHT22;12165;45.458;11.062;2022-09-01T15:20:12;27.50;99.80
23957;DHT22;12165;45.458;11.062;2022-09-01T15:22:58;27.60;99.50
23957;DHT22;12165;45.458;11.062;2022-09-01T15:25:26;27.70;99.50
23957;DHT22;12165;45.458;11.062;2022-09-01T15:27:53;27.70;99.20
23957;DHT22;12165;45.458;11.062;2022-09-01T15:30:20;27.90;99.30
23957;DHT22;12165;45.458;11.062;2022-09-01T15:32:49;27.90;99.10
23957;DHT22;12165;45.458;11.062;2022-09-01T15:35:18;28.00;98.80
23957;DHT22;12165;45.458;11.062;2022-09-01T15:37:46;28.20;99.10
23957;DHT22;12165;45.458;11.062;2022-09-01T15:40:14;28.40;99.10
23957;DHT22;12165;45.458;11.062;2022-09-01T15:42:42;28.20;99.10
23957;DHT22;12165;45.458;11.062;2022-09-01T15:45:15;28.10;99.50
23957;DHT22;12165;45.458;11.062;2022-09-01T15:47:42;27.90;99.30
23957;DHT22;12165;45.458;11.062;2022-09-01T15:50:13;27.60;98.50
23957;DHT22;12165;45.458;11.062;2022-09-01T15:52:56;27.40;99.10
23957;DHT22;12165;45.458;11.062;2022-09-01T15:55:30;27.20;99.90
23957;DHT22;12165;45.458;11.062;2022-09-01T15:57:57;27.10;99.90
23957;DHT22;12165;45.458;11.062;2022-09-01T16:00:25;27.00;99.80
23957;DHT22;12165;45.458;11.062;2022-09-01T16:02:53;26.90;99.90
23957;DHT22;12165;45.458;11.062;2022-09-01T16:05:23;26.80;99.90
23957;DHT22;12165;45.458;11.062;2022-09-01T16:07:51;26.80;99.90
23957;DHT22;12165;45.458;11.062;2022-09-01T16:10:20;26.70;99.90
23957;DHT22;12165;45.458;11.062;2022-09-01T16:12:47;26.70;99.90
23957;DHT22;12165;45.458;11.062;2022-09-01T16:15:20;26.90;99.90
23957;DHT22;12165;45.458;11.062;2022-09-01T16:20:45;26.70;99.90
23957;DHT22;12165;45.458;11.062;2022-09-01T16:23:19;26.60;99.90
23957;DHT22;12165;45.458;11.062;2022-09-01T16:25:47;26.60;99.90
23957;DHT22;12165;45.458;11.062;2022-09-01T16:28:26;26.50;99.90
23957;DHT22;12165;45.458;11.062;2022-09-01T16:31:27;26.50;99.90
23957;DHT22;12165;45.458;11.062;2022-09-01T16:33:58;26.40;99.90
23957;DHT22;12165;45.458;11.062;2022-09-01T16:42:10;26.10;99.90
23957;DHT22;12165;45.458;11.062;2022-09-01T16:45:05;26.20;99.90
23957;DHT22;12165;45.458;11.062;2022-09-01T16:56:04;25.90;99.90
23957;DHT22;12165;45.458;11.062;2022-09-01T17:01:47;25.70;99.90
23957;DHT22;12165;45.458;11.062;2022-09-01T17:06:55;25.40;99.90
23957;DHT22;12165;45.458;11.062;2022-09-01T17:09:30;25.40;99.90
23957;DHT22;12165;45.458;11.062;2022-09-01T17:15:17;25.30;99.90
23957;DHT22;12165;45.458;11.062;2022-09-01T17:20:34;24.90;99.90
23957;DHT22;12165;45.458;11.062;2022-09-01T17:23:01;24.60;99.90
23957;DHT22;12165;45.458;11.062;2022-09-01T17:25:47;24.50;99.90
23957;DHT22;12165;45.458;11.062;2022-09-01T17:28:21;24.50;99.90
23957;DHT22;12165;45.458;11.062;2022-09-01T17:36:41;24.40;99.90
23957;DHT22;12165;45.458;11.062;2022-09-01T17:41:55;24.30;99.90
23957;DHT22;12165;45.458;11.062;2022-09-01T17:49:37;24.00;99.90
23957;DHT22;12165;45.458;11.062;2022-09-01T17:52:22;23.90;99.90
23957;DHT22;12165;45.458;11.062;2022-09-01T17:57:51;23.90;99.90